Terminal Aerodrome Forecast
Issued by NWS Sterling, VA

Current Version | Previous Version | Graphics & Text | Print | Product List | Glossary On
Versions: 1 2 3 4 5 6 7 8 9 10 11 12 13 14 15 16 17 18 19 20 21 22 23 24 25 26 27 28 29 30 31
039
FTUS41 KLWX 211452 AAA
TAFDCA
TAF AMD
KDCA 211452Z 2115/2212 06011G19KT P6SM -RA OVC020
     FM211600 06011G19KT P6SM OVC008
     FM212100 02009KT 3SM -SHRA BR OVC008
     FM220000 02008KT 5SM BR OVC008
     FM220900 35005KT 5SM -SHRA BR OVC008=

USA.gov is the U.S. government's official web portal to all federal, state and local government web resources and services.